Time;durP1;ratioP1;P1;durP2;ratioP2;P2;SDS_P1;SDS_P2;PMS_P1;PMS_P2;Temp;Humidity;BMP_temperature;BMP_pressure;BME280_temperature;BME280_humidity;BME280_pressure;Samples;Min_cycle;Max_cycle;Signal;HPM_P1;HPM_P2
2022/04/24 00:00:24;;;;;;;1999.90;999.90;;;;;;;;;;4976978;28;20245;-68
2022/04/24 00:03:09;;;;;;;1999.90;999.90;;;;;;;;;;4976997;28;20241;-68
2022/04/24 00:05:54;;;;;;;1999.90;999.90;;;;;;;;;;4976995;28;20681;-68
2022/04/24 00:08:39;;;;;;;1999.90;999.90;;;;;;;;;;4976609;28;20236;-68
2022/04/24 00:11:24;;;;;;;1999.90;999.90;;;;;;;;;;4975812;28;20344;-68
2022/04/24 00:14:10;;;;;;;1999.90;999.90;;;;;;;;;;4976898;28;20241;-67
2022/04/24 00:16:57;;;;;;;1999.90;999.90;;;;;;;;;;4976770;28;20197;-69
2022/04/24 00:19:42;;;;;;;1999.90;999.90;;;;;;;;;;4963023;28;20563;-68
2022/04/24 00:22:27;;;;;;;1999.90;999.90;;;;;;;;;;4956135;29;20504;-68
2022/04/24 00:25:11;;;;;;;1999.90;999.90;;;;;;;;;;4956998;29;20618;-68
2022/04/24 00:27:56;;;;;;;1999.90;999.90;;;;;;;;;;4957043;29;20211;-68
2022/04/24 00:30:41;;;;;;;1999.90;999.90;;;;;;;;;;4956880;29;20372;-68
2022/04/24 00:33:27;;;;;;;1999.90;999.90;;;;;;;;;;4956591;29;20412;-68
2022/04/24 00:36:12;;;;;;;1999.90;999.90;;;;;;;;;;4956841;29;20209;-69
2022/04/24 00:38:57;;;;;;;1999.90;999.90;;;;;;;;;;4956799;29;20209;-69
2022/04/24 00:41:46;;;;;;;1999.90;999.90;;;;;;;;;;4956936;29;20727;-69
2022/04/24 00:44:33;;;;;;;1999.90;999.90;;;;;;;;;;4956985;29;20572;-69
2022/04/24 00:47:18;;;;;;;1999.90;999.90;;;;;;;;;;4956621;29;20220;-69
2022/04/24 00:50:06;;;;;;;1999.90;999.90;;;;;;;;;;4956346;29;20350;-69
2022/04/24 00:52:51;;;;;;;1999.90;999.90;;;;;;;;;;4956837;29;20796;-67
2022/04/24 00:55:36;;;;;;;1999.90;999.90;;;;;;;;;;4956821;29;20581;-68
2022/04/24 00:58:22;;;;;;;1999.90;999.90;;;;;;;;;;4956193;29;20573;-69
2022/04/24 01:01:07;;;;;;;1999.90;999.90;;;;;;;;;;4956539;28;20309;-69
2022/04/24 01:03:52;;;;;;;1999.90;999.90;;;;;;;;;;4955934;29;20417;-67
2022/04/24 01:06:40;;;;;;;1999.90;999.90;;;;;;;;;;4956582;29;20711;-68
2022/04/24 01:09:26;;;;;;;1999.90;999.90;;;;;;;;;;4955919;29;20239;-68
2022/04/24 01:12:11;;;;;;;1999.90;999.90;;;;;;;;;;4956524;29;20236;-69
2022/04/24 01:14:56;;;;;;;1999.90;999.90;;;;;;;;;;4956356;29;20747;-69
2022/04/24 01:17:41;;;;;;;1999.90;999.90;;;;;;;;;;4956194;29;20251;-68
2022/04/24 01:20:28;;;;;;;1999.90;999.90;;;;;;;;;;4958300;28;20272;-69
2022/04/24 01:23:13;;;;;;;1999.90;999.90;;;;;;;;;;4956292;29;20204;-69
2022/04/24 01:25:58;;;;;;;1999.90;999.90;;;;;;;;;;4956235;29;20212;-68
2022/04/24 01:28:43;;;;;;;1999.90;999.90;;;;;;;;;;4962145;28;20208;-68
2022/04/24 01:31:28;;;;;;;1999.90;999.90;;;;;;;;;;4975296;28;20220;-68
2022/04/24 01:34:13;;;;;;;1999.90;999.90;;;;;;;;;;4975389;28;20208;-69
2022/04/24 01:36:59;;;;;;;1999.90;999.90;;;;;;;;;;4975322;28;20267;-68
2022/04/24 01:39:44;;;;;;;1999.90;999.90;;;;;;;;;;4975023;28;20212;-68
2022/04/24 01:42:30;;;;;;;1999.90;999.90;;;;;;;;;;4975038;28;20315;-67
2022/04/24 01:45:15;;;;;;;1999.90;999.90;;;;;;;;;;4974715;28;20895;-68
2022/04/24 01:47:59;;;;;;;1999.90;999.90;;;;;;;;;;4974681;28;20687;-68
2022/04/24 01:50:44;;;;;;;1999.90;999.90;;;;;;;;;;4974764;28;20235;-69
2022/04/24 01:53:31;;;;;;;1999.90;999.90;;;;;;;;;;4969870;28;20201;-68
2022/04/24 01:56:16;;;;;;;1999.90;999.90;;;;;;;;;;4958412;28;20208;-69
2022/04/24 01:59:01;;;;;;;1999.90;999.90;;;;;;;;;;4934587;29;20421;-68
2022/04/24 02:01:45;;;;;;;1999.90;999.90;;;;;;;;;;4936339;29;20232;-68
2022/04/24 02:04:30;;;;;;;1999.90;999.90;;;;;;;;;;4936367;29;20346;-68
2022/04/24 02:07:15;;;;;;;1999.90;999.90;;;;;;;;;;4948019;28;20212;-69
2022/04/24 02:10:01;;;;;;;1999.90;999.90;;;;;;;;;;4955067;29;20232;-68
2022/04/24 02:12:46;;;;;;;1999.90;999.90;;;;;;;;;;4955223;28;20209;-69
2022/04/24 02:15:31;;;;;;;1999.90;999.90;;;;;;;;;;4974539;28;20231;-68
2022/04/24 02:18:17;;;;;;;1999.90;999.90;;;;;;;;;;4974315;28;20203;-69
2022/04/24 02:21:01;;;;;;;1999.90;999.90;;;;;;;;;;4974362;28;20367;-69
2022/04/24 02:23:46;;;;;;;1999.90;999.90;;;;;;;;;;4974406;28;20208;-69
2022/04/24 02:26:32;;;;;;;1999.90;999.90;;;;;;;;;;4974188;28;20312;-69
2022/04/24 02:29:18;;;;;;;1999.90;999.90;;;;;;;;;;4974114;28;20208;-69
2022/04/24 02:32:03;;;;;;;1999.90;999.90;;;;;;;;;;4974199;28;20698;-67
2022/04/24 02:34:48;;;;;;;1999.90;999.90;;;;;;;;;;4974052;28;20220;-69
2022/04/24 02:37:34;;;;;;;1999.90;999.90;;;;;;;;;;4973091;28;20215;-67
2022/04/24 02:40:21;;;;;;;1999.90;999.90;;;;;;;;;;4974161;28;20604;-69
2022/04/24 02:43:08;;;;;;;1999.90;999.90;;;;;;;;;;4974096;28;20208;-68
2022/04/24 02:45:53;;;;;;;1999.90;999.90;;;;;;;;;;4974088;28;20204;-69
2022/04/24 02:48:38;;;;;;;1999.90;999.90;;;;;;;;;;4973799;28;20247;-68
2022/04/24 02:51:24;;;;;;;1999.90;999.90;;;;;;;;;;4973593;28;20231;-68
2022/04/24 02:54:08;;;;;;;1999.90;999.90;;;;;;;;;;4973988;28;20558;-68
2022/04/24 02:56:53;;;;;;;1999.90;999.90;;;;;;;;;;4973051;28;20204;-69
2022/04/24 02:59:42;;;;;;;1999.90;999.90;;;;;;;;;;4973510;28;20625;-68
2022/04/24 03:02:27;;;;;;;1999.90;999.90;;;;;;;;;;4973794;28;20287;-69
2022/04/24 03:05:12;;;;;;;1999.90;999.90;;;;;;;;;;4973720;28;20302;-69
2022/04/24 03:07:57;;;;;;;1999.90;999.90;;;;;;;;;;4973377;28;20251;-69
2022/04/24 03:10:42;;;;;;;1999.90;999.90;;;;;;;;;;4954749;28;20447;-68
2022/04/24 03:13:27;;;;;;;1999.90;999.90;;;;;;;;;;4954228;29;20578;-69
2022/04/24 03:16:13;;;;;;;1999.90;999.90;;;;;;;;;;4954239;29;20200;-69
2022/04/24 03:18:58;;;;;;;1999.90;999.90;;;;;;;;;;4953874;28;20212;-69
2022/04/24 03:21:43;;;;;;;1999.90;999.90;;;;;;;;;;4953951;28;20433;-69
2022/04/24 03:24:28;;;;;;;1999.90;999.90;;;;;;;;;;4961296;28;20340;-69
2022/04/24 03:27:13;;;;;;;1999.90;999.90;;;;;;;;;;4971420;28;20208;-68
2022/04/24 03:29:58;;;;;;;1999.90;999.90;;;;;;;;;;4972997;28;20227;-69
2022/04/24 03:32:47;;;;;;;1999.90;999.90;;;;;;;;;;4972793;28;20233;-68
2022/04/24 03:35:32;;;;;;;1999.90;999.90;;;;;;;;;;4973332;28;20590;-69
2022/04/24 03:38:17;;;;;;;1999.90;999.90;;;;;;;;;;4973007;28;20215;-69
2022/04/24 03:41:02;;;;;;;1999.90;999.90;;;;;;;;;;4967033;28;20224;-69
2022/04/24 03:43:47;;;;;;;1999.90;999.90;;;;;;;;;;4953671;29;20249;-69
2022/04/24 03:46:32;;;;;;;1999.90;999.90;;;;;;;;;;4953980;29;20216;-68
2022/04/24 03:49:18;;;;;;;1999.90;999.90;;;;;;;;;;4953684;29;20569;-68
2022/04/24 03:52:03;;;;;;;1999.90;999.90;;;;;;;;;;4953361;29;20409;-68
2022/04/24 03:54:48;;;;;;;1999.90;999.90;;;;;;;;;;4953685;29;20280;-68
2022/04/24 03:57:33;;;;;;;1999.90;999.90;;;;;;;;;;4953847;29;20597;-69
2022/04/24 04:00:19;;;;;;;1999.90;999.90;;;;;;;;;;4955112;28;20224;-67
2022/04/24 04:03:06;;;;;;;1999.90;999.90;;;;;;;;;;4965270;28;20205;-69
2022/04/24 04:05:53;;;;;;;1999.90;999.90;;;;;;;;;;4952352;29;20503;-68
2022/04/24 04:08:37;;;;;;;1999.90;999.90;;;;;;;;;;4953572;29;20212;-69
2022/04/24 04:11:22;;;;;;;1999.90;999.90;;;;;;;;;;4958888;28;20770;-69
2022/04/24 04:14:07;;;;;;;1999.90;999.90;;;;;;;;;;4958417;28;20690;-67
2022/04/24 04:16:53;;;;;;;1999.90;999.90;;;;;;;;;;4958622;28;20716;-68
2022/04/24 04:19:39;;;;;;;1999.90;999.90;;;;;;;;;;4951889;28;20348;-69
2022/04/24 04:22:25;;;;;;;1999.90;999.90;;;;;;;;;;4956623;28;20236;-68
2022/04/24 04:25:10;;;;;;;1999.90;999.90;;;;;;;;;;4967343;28;20208;-69
2022/04/24 04:27:55;;;;;;;1999.90;999.90;;;;;;;;;;4963483;28;20208;-69
2022/04/24 04:30:41;;;;;;;1999.90;999.90;;;;;;;;;;4968257;28;20627;-68
2022/04/24 04:33:27;;;;;;;1999.90;999.90;;;;;;;;;;4942680;28;20212;-68
2022/04/24 04:36:12;;;;;;;1999.90;999.90;;;;;;;;;;4952616;28;20444;-69
2022/04/24 04:38:58;;;;;;;1999.90;999.90;;;;;;;;;;4972423;28;20207;-69
2022/04/24 04:41:44;;;;;;;1999.90;999.90;;;;;;;;;;4970621;28;20584;-68
2022/04/24 04:44:29;;;;;;;1999.90;999.90;;;;;;;;;;4957176;29;20751;-69
2022/04/24 04:47:14;;;;;;;1999.90;999.90;;;;;;;;;;4956092;29;20808;-69
2022/04/24 04:49:59;;;;;;;1999.90;999.90;;;;;;;;;;4952929;28;20217;-68
2022/04/24 04:52:44;;;;;;;1999.90;999.90;;;;;;;;;;4955664;29;20333;-67
2022/04/24 04:55:31;;;;;;;1999.90;999.90;;;;;;;;;;4954441;29;20280;-68
2022/04/24 04:58:15;;;;;;;1999.90;999.90;;;;;;;;;;4953688;29;20209;-68
2022/04/24 05:01:01;;;;;;;1999.90;999.90;;;;;;;;;;4955238;28;20224;-68
2022/04/24 05:03:46;;;;;;;1999.90;999.90;;;;;;;;;;4955390;29;20568;-67
2022/04/24 05:06:32;;;;;;;1999.90;999.90;;;;;;;;;;4955219;29;20220;-67
2022/04/24 05:09:16;;;;;;;1999.90;999.90;;;;;;;;;;4955045;29;20694;-67
2022/04/24 05:12:03;;;;;;;1999.90;999.90;;;;;;;;;;4954857;28;20271;-68
2022/04/24 05:14:48;;;;;;;1999.90;999.90;;;;;;;;;;4955259;29;20219;-68
2022/04/24 05:17:34;;;;;;;1999.90;999.90;;;;;;;;;;4955199;29;20592;-68
2022/04/24 05:20:19;;;;;;;1999.90;999.90;;;;;;;;;;4954074;28;20420;-67
2022/04/24 05:23:04;;;;;;;1999.90;999.90;;;;;;;;;;4952995;29;20759;-68
2022/04/24 05:25:50;;;;;;;1999.90;999.90;;;;;;;;;;4955213;29;20220;-66
2022/04/24 05:28:36;;;;;;;1999.90;999.90;;;;;;;;;;4954898;29;20703;-68
2022/04/24 05:31:21;;;;;;;1999.90;999.90;;;;;;;;;;4956201;28;20445;-68
2022/04/24 05:34:06;;;;;;;1999.90;999.90;;;;;;;;;;4954800;29;20337;-68
2022/04/24 05:36:51;;;;;;;1999.90;999.90;;;;;;;;;;4954851;29;20279;-68
2022/04/24 05:39:36;;;;;;;1999.90;999.90;;;;;;;;;;4952760;29;20268;-67
2022/04/24 05:42:20;;;;;;;1999.90;999.90;;;;;;;;;;4954771;29;20587;-67
2022/04/24 05:45:10;;;;;;;1999.90;999.90;;;;;;;;;;4954434;29;20256;-67
2022/04/24 05:47:55;;;;;;;1999.90;999.90;;;;;;;;;;4952390;28;20382;-67
2022/04/24 05:50:40;;;;;;;1999.90;999.90;;;;;;;;;;4954366;28;20825;-66
2022/04/24 05:53:25;;;;;;;1999.90;999.90;;;;;;;;;;4954858;29;20571;-68
2022/04/24 05:56:10;;;;;;;1999.90;999.90;;;;;;;;;;4955497;29;20204;-67
2022/04/24 05:58:54;;;;;;;1999.90;999.90;;;;;;;;;;4963030;28;20207;-67
2022/04/24 06:01:41;;;;;;;1999.90;999.90;;;;;;;;;;4974634;28;20495;-67
2022/04/24 06:04:26;;;;;;;1999.90;999.90;;;;;;;;;;4958747;28;20430;-67
2022/04/24 06:07:13;;;;;;;1999.90;999.90;;;;;;;;;;4955378;29;20212;-67
2022/04/24 06:09:58;;;;;;;1999.90;999.90;;;;;;;;;;4955183;28;20214;-64
2022/04/24 06:12:47;;;;;;;1999.90;999.90;;;;;;;;;;4954916;29;20210;-69
2022/04/24 06:15:32;;;;;;;1999.90;999.90;;;;;;;;;;4953835;29;20417;-67
2022/04/24 06:18:18;;;;;;;1999.90;999.90;;;;;;;;;;4955022;29;20266;-66
2022/04/24 06:21:03;;;;;;;1999.90;999.90;;;;;;;;;;4958527;28;20913;-68
2022/04/24 06:23:48;;;;;;;1999.90;999.90;;;;;;;;;;4958647;28;20211;-68
2022/04/24 06:26:33;;;;;;;1999.90;999.90;;;;;;;;;;4961078;28;20300;-67
2022/04/24 06:29:18;;;;;;;1999.90;999.90;;;;;;;;;;4965514;28;20226;-68
2022/04/24 06:32:04;;;;;;;1999.90;999.90;;;;;;;;;;4966018;28;20240;-68
2022/04/24 06:34:50;;;;;;;1999.90;999.90;;;;;;;;;;4954902;29;20200;-68
2022/04/24 06:37:35;;;;;;;1999.90;999.90;;;;;;;;;;4955001;29;20208;-68
2022/04/24 06:40:20;;;;;;;1999.90;999.90;;;;;;;;;;4953965;28;20589;-68
2022/04/24 06:43:06;;;;;;;1999.90;999.90;;;;;;;;;;4953670;29;20362;-67
2022/04/24 06:45:52;;;;;;;1999.90;999.90;;;;;;;;;;4950455;29;20415;-68
2022/04/24 06:48:37;;;;;;;1999.90;999.90;;;;;;;;;;4954674;29;20212;-68
2022/04/24 06:51:23;;;;;;;1999.90;999.90;;;;;;;;;;4954453;28;20240;-68
2022/04/24 06:54:08;;;;;;;1999.90;999.90;;;;;;;;;;4954758;29;20228;-68
2022/04/24 06:56:53;;;;;;;1999.90;999.90;;;;;;;;;;4953464;29;20428;-69
2022/04/24 06:59:38;;;;;;;1999.90;999.90;;;;;;;;;;4953932;28;20287;-68
2022/04/24 07:02:23;;;;;;;1999.90;999.90;;;;;;;;;;4954243;29;20326;-68
2022/04/24 07:05:09;;;;;;;1999.90;999.90;;;;;;;;;;4954221;29;20220;-68
2022/04/24 07:07:55;;;;;;;1999.90;999.90;;;;;;;;;;4953856;29;20256;-70
2022/04/24 07:10:40;;;;;;;1999.90;999.90;;;;;;;;;;4952915;28;20224;-71
2022/04/24 07:13:25;;;;;;;1999.90;999.90;;;;;;;;;;4953411;29;20208;-71
2022/04/24 07:16:10;;;;;;;1999.90;999.90;;;;;;;;;;4954408;29;20211;-71
2022/04/24 07:18:55;;;;;;;1999.90;999.90;;;;;;;;;;4954049;29;20216;-71
2022/04/24 07:21:40;;;;;;;1999.90;999.90;;;;;;;;;;4954113;28;20236;-71
2022/04/24 07:24:26;;;;;;;1999.90;999.90;;;;;;;;;;4953820;29;20494;-71
2022/04/24 07:27:11;;;;;;;1999.90;999.90;;;;;;;;;;4954257;29;20577;-70
2022/04/24 07:29:56;;;;;;;1999.90;999.90;;;;;;;;;;4953755;28;20208;-71
2022/04/24 07:32:41;;;;;;;1999.90;999.90;;;;;;;;;;4953927;29;20625;-71
2022/04/24 07:35:28;;;;;;;1999.90;999.90;;;;;;;;;;4954108;29;20201;-71
2022/04/24 07:38:13;;;;;;;1999.90;999.90;;;;;;;;;;4952477;29;20762;-72
2022/04/24 07:41:00;;;;;;;1999.90;999.90;;;;;;;;;;4951299;28;20229;-71
2022/04/24 07:43:48;;;;;;;1999.90;999.90;;;;;;;;;;4961943;28;20215;-71
2022/04/24 07:46:34;;;;;;;1999.90;999.90;;;;;;;;;;4960221;28;20211;-70
2022/04/24 07:49:19;;;;;;;1999.90;999.90;;;;;;;;;;4957466;28;20204;-70
2022/04/24 07:52:04;;;;;;;1999.90;999.90;;;;;;;;;;4954439;28;20224;-69
2022/04/24 07:54:51;;;;;;;1999.90;999.90;;;;;;;;;;4961588;28;20694;-70
2022/04/24 07:57:37;;;;;;;1999.90;999.90;;;;;;;;;;4956929;28;20428;-71
2022/04/24 08:00:23;;;;;;;1999.90;999.90;;;;;;;;;;4968313;28;20271;-70
2022/04/24 08:03:09;;;;;;;1999.90;999.90;;;;;;;;;;4963706;28;20309;-70
2022/04/24 08:05:54;;;;;;;1999.90;999.90;;;;;;;;;;4958632;28;20686;-70
2022/04/24 08:08:39;;;;;;;1999.90;999.90;;;;;;;;;;4954153;28;20536;-70
2022/04/24 08:11:24;;;;;;;1999.90;999.90;;;;;;;;;;4957100;28;20602;-69
2022/04/24 08:14:10;;;;;;;1999.90;999.90;;;;;;;;;;4958787;28;20220;-69
2022/04/24 08:16:55;;;;;;;1999.90;999.90;;;;;;;;;;4967440;28;20283;-72
2022/04/24 08:19:40;;;;;;;1999.90;999.90;;;;;;;;;;4953473;28;20327;-71
2022/04/24 08:22:25;;;;;;;1999.90;999.90;;;;;;;;;;4966841;28;20212;-71
2022/04/24 08:25:11;;;;;;;1999.90;999.90;;;;;;;;;;4960883;28;20579;-71
2022/04/24 08:27:57;;;;;;;1999.90;999.90;;;;;;;;;;4962387;28;20238;-71
2022/04/24 08:30:48;;;;;;;1999.90;999.90;;;;;;;;;;4957702;28;20337;-71
2022/04/24 08:33:33;;;;;;;1999.90;999.90;;;;;;;;;;4961268;28;20269;-69
2022/04/24 08:36:17;;;;;;;1999.90;999.90;;;;;;;;;;4964553;28;20411;-71
2022/04/24 08:39:03;;;;;;;1999.90;999.90;;;;;;;;;;4961531;28;20197;-71
2022/04/24 08:41:49;;;;;;;1999.90;999.90;;;;;;;;;;4958030;28;20300;-70
2022/04/24 08:44:34;;;;;;;1999.90;999.90;;;;;;;;;;4963940;28;20279;-70
2022/04/24 08:47:20;;;;;;;1999.90;999.90;;;;;;;;;;4958537;28;20220;-71
2022/04/24 08:50:06;;;;;;;1999.90;999.90;;;;;;;;;;4952160;28;20398;-71
2022/04/24 08:52:51;;;;;;;1999.90;999.90;;;;;;;;;;4961416;28;20236;-70
2022/04/24 08:55:36;;;;;;;1999.90;999.90;;;;;;;;;;4967275;28;20216;-71
2022/04/24 08:58:21;;;;;;;1999.90;999.90;;;;;;;;;;4958511;28;20212;-71
2022/04/24 09:01:06;;;;;;;1999.90;999.90;;;;;;;;;;4957507;28;20224;-71
2022/04/24 09:03:53;;;;;;;1999.90;999.90;;;;;;;;;;4958371;28;20203;-70
2022/04/24 09:06:38;;;;;;;1999.90;999.90;;;;;;;;;;4957622;28;21045;-69
2022/04/24 09:09:23;;;;;;;1999.90;999.90;;;;;;;;;;4965152;28;20207;-71
2022/04/24 09:12:09;;;;;;;1999.90;999.90;;;;;;;;;;4960411;28;20260;-69
2022/04/24 09:14:55;;;;;;;1999.90;999.90;;;;;;;;;;4966475;28;20688;-71
2022/04/24 09:17:40;;;;;;;1999.90;999.90;;;;;;;;;;4961664;28;20896;-70
2022/04/24 09:20:28;;;;;;;1999.90;999.90;;;;;;;;;;4958056;28;20244;-70
2022/04/24 09:23:13;;;;;;;1999.90;999.90;;;;;;;;;;4954013;28;20217;-70
2022/04/24 09:25:58;;;;;;;1999.90;999.90;;;;;;;;;;4960473;28;20255;-70
2022/04/24 09:28:44;;;;;;;1999.90;999.90;;;;;;;;;;4962681;28;20204;-70
2022/04/24 09:31:29;;;;;;;1999.90;999.90;;;;;;;;;;4957799;28;20432;-71
2022/04/24 09:34:14;;;;;;;1999.90;999.90;;;;;;;;;;4962280;28;20228;-71
2022/04/24 09:37:02;;;;;;;1999.90;999.90;;;;;;;;;;4956836;28;20264;-70
2022/04/24 09:39:48;;;;;;;1999.90;999.90;;;;;;;;;;4958243;28;20215;-71
2022/04/24 09:42:33;;;;;;;1999.90;999.90;;;;;;;;;;4954520;28;20287;-70
2022/04/24 09:45:23;;;;;;;1999.90;999.90;;;;;;;;;;4965047;28;20208;-70
2022/04/24 09:48:12;;;;;;;1999.90;999.90;;;;;;;;;;4958758;28;20584;-72
2022/04/24 09:50:58;;;;;;;1999.90;999.90;;;;;;;;;;4957838;28;20228;-72
2022/04/24 09:53:46;;;;;;;1999.90;999.90;;;;;;;;;;4958713;28;20220;-71
2022/04/24 09:56:32;;;;;;;1999.90;999.90;;;;;;;;;;4960313;28;20340;-72
2022/04/24 09:59:17;;;;;;;1999.90;999.90;;;;;;;;;;4962699;28;20207;-72
2022/04/24 10:02:03;;;;;;;1999.90;999.90;;;;;;;;;;4966469;28;20890;-71
2022/04/24 10:04:49;;;;;;;1999.90;999.90;;;;;;;;;;4958311;28;20209;-70
2022/04/24 10:07:34;;;;;;;1999.90;999.90;;;;;;;;;;4957470;28;20217;-71
2022/04/24 10:10:20;;;;;;;1999.90;999.90;;;;;;;;;;4963183;28;20235;-70
2022/04/24 10:13:06;;;;;;;1999.90;999.90;;;;;;;;;;4964760;28;20442;-71
2022/04/24 10:15:56;;;;;;;1999.90;999.90;;;;;;;;;;4968572;28;20207;-71
2022/04/24 10:18:48;;;;;;;1999.90;999.90;;;;;;;;;;4968324;28;20288;-71
2022/04/24 10:21:42;;;;;;;1999.90;999.90;;;;;;;;;;4958470;28;20240;-72
2022/04/24 10:24:38;;;;;;;1999.90;999.90;;;;;;;;;;4954174;28;20282;-71
2022/04/24 10:27:24;;;;;;;1999.90;999.90;;;;;;;;;;4961174;28;20588;-72
2022/04/24 10:30:12;;;;;;;1999.90;999.90;;;;;;;;;;4953333;28;20217;-71
2022/04/24 10:33:13;;;;;;;1999.90;999.90;;;;;;;;;;4966377;28;20609;-71
2022/04/24 10:35:59;;;;;;;1999.90;999.90;;;;;;;;;;4956974;28;20200;-71
2022/04/24 10:38:48;;;;;;;1999.90;999.90;;;;;;;;;;4956302;28;21606;-71
2022/04/24 10:41:34;;;;;;;1999.90;999.90;;;;;;;;;;4957765;28;20228;-72
2022/04/24 10:44:20;;;;;;;1999.90;999.90;;;;;;;;;;4954291;28;20209;-72
2022/04/24 10:47:11;;;;;;;1999.90;999.90;;;;;;;;;;4959312;28;20204;-72
2022/04/24 10:50:05;;;;;;;1999.90;999.90;;;;;;;;;;4951961;28;20197;-72
2022/04/24 10:52:52;;;;;;;1999.90;999.90;;;;;;;;;;4953282;28;20253;-71
2022/04/24 10:55:37;;;;;;;1999.90;999.90;;;;;;;;;;4965432;28;20909;-71
2022/04/24 10:58:25;;;;;;;1999.90;999.90;;;;;;;;;;4963675;28;20223;-72
2022/04/24 11:01:15;;;;;;;1999.90;999.90;;;;;;;;;;4970306;28;20224;-72
2022/04/24 11:04:04;;;;;;;1999.90;999.90;;;;;;;;;;4963986;28;20312;-72
2022/04/24 11:06:53;;;;;;;1999.90;999.90;;;;;;;;;;4955967;28;20216;-72
2022/04/24 11:09:38;;;;;;;1999.90;999.90;;;;;;;;;;4968520;28;20212;-72
2022/04/24 11:12:29;;;;;;;1999.90;999.90;;;;;;;;;;4950646;28;20236;-71
2022/04/24 11:15:15;;;;;;;1999.90;999.90;;;;;;;;;;4963204;28;20203;-71
2022/04/24 11:18:01;;;;;;;1999.90;999.90;;;;;;;;;;4964022;28;20217;-71
2022/04/24 11:20:53;;;;;;;1999.90;999.90;;;;;;;;;;4955664;28;20363;-71
2022/04/24 11:23:40;;;;;;;1999.90;999.90;;;;;;;;;;4960951;28;20574;-72
2022/04/24 11:26:26;;;;;;;1999.90;999.90;;;;;;;;;;4935977;28;20209;-71
2022/04/24 11:29:11;;;;;;;1999.90;999.90;;;;;;;;;;4965133;28;20215;-71
2022/04/24 11:31:56;;;;;;;1999.90;999.90;;;;;;;;;;4966511;28;20234;-72
2022/04/24 11:34:43;;;;;;;1999.90;999.90;;;;;;;;;;4960969;28;20684;-72
2022/04/24 11:37:28;;;;;;;1999.90;999.90;;;;;;;;;;4964672;28;20401;-71
2022/04/24 11:40:13;;;;;;;1999.90;999.90;;;;;;;;;;4950258;28;20232;-71
2022/04/24 11:43:02;;;;;;;1999.90;999.90;;;;;;;;;;4952914;28;20196;-72
2022/04/24 11:52:07;;;;;;;1999.90;999.90;;;;;;;;;;4963533;28;20243;-70
2022/04/24 11:54:52;;;;;;;1999.90;999.90;;;;;;;;;;4967157;28;20583;-71
2022/04/24 11:57:37;;;;;;;1999.90;999.90;;;;;;;;;;4972716;28;20328;-71
2022/04/24 12:00:33;;;;;;;1999.90;999.90;;;;;;;;;;4958779;28;20238;-72
2022/04/24 12:03:18;;;;;;;1999.90;999.90;;;;;;;;;;4953549;29;20193;-71
2022/04/24 12:06:05;;;;;;;1999.90;999.90;;;;;;;;;;4953500;29;20699;-71
2022/04/24 12:08:52;;;;;;;1999.90;999.90;;;;;;;;;;4953238;29;20212;-71
2022/04/24 12:11:37;;;;;;;1999.90;999.90;;;;;;;;;;4953497;28;20227;-72
2022/04/24 12:14:27;;;;;;;1999.90;999.90;;;;;;;;;;4953253;29;20197;-70
2022/04/24 12:17:12;;;;;;;1999.90;999.90;;;;;;;;;;4953155;29;20272;-71
2022/04/24 12:19:58;;;;;;;1999.90;999.90;;;;;;;;;;4953110;28;20568;-72
2022/04/24 12:22:43;;;;;;;1999.90;999.90;;;;;;;;;;4953631;29;20204;-72
2022/04/24 12:25:29;;;;;;;1999.90;999.90;;;;;;;;;;4953437;29;20265;-72
2022/04/24 12:28:26;;;;;;;1999.90;999.90;;;;;;;;;;4953094;29;20212;-72
2022/04/24 12:31:20;;;;;;;1999.90;999.90;;;;;;;;;;4953182;28;20226;-72
2022/04/24 12:34:05;;;;;;;1999.90;999.90;;;;;;;;;;4953047;29;20232;-71
2022/04/24 12:36:50;;;;;;;1999.90;999.90;;;;;;;;;;4953095;29;20205;-71
2022/04/24 12:39:36;;;;;;;1999.90;999.90;;;;;;;;;;4952913;29;20307;-71
2022/04/24 12:42:22;;;;;;;1999.90;999.90;;;;;;;;;;4953075;28;20658;-71
2022/04/24 12:45:08;;;;;;;1999.90;999.90;;;;;;;;;;4953147;29;20213;-71
2022/04/24 12:47:54;;;;;;;1999.90;999.90;;;;;;;;;;4951847;29;20420;-70
2022/04/24 12:50:39;;;;;;;1999.90;999.90;;;;;;;;;;4953026;29;20224;-72
2022/04/24 12:53:24;;;;;;;1999.90;999.90;;;;;;;;;;4953168;29;20316;-71
2022/04/24 12:56:09;;;;;;;1999.90;999.90;;;;;;;;;;4953163;29;20348;-72
2022/04/24 12:58:56;;;;;;;1999.90;999.90;;;;;;;;;;4954447;28;20231;-72
2022/04/24 13:01:43;;;;;;;1999.90;999.90;;;;;;;;;;4951874;28;20738;-72
2022/04/24 13:04:28;;;;;;;1999.90;999.90;;;;;;;;;;4953787;29;20588;-71
2022/04/24 13:07:13;;;;;;;1999.90;999.90;;;;;;;;;;4956093;29;20314;-71
2022/04/24 13:09:59;;;;;;;1999.90;999.90;;;;;;;;;;4956158;28;20695;-70
2022/04/24 13:12:43;;;;;;;1999.90;999.90;;;;;;;;;;4956197;29;20221;-71
2022/04/24 13:15:31;;;;;;;1999.90;999.90;;;;;;;;;;4955990;29;20295;-71
2022/04/24 13:18:15;;;;;;;1999.90;999.90;;;;;;;;;;4955860;29;20193;-69
2022/04/24 13:21:00;;;;;;;1999.90;999.90;;;;;;;;;;4956045;28;20259;-71
2022/04/24 13:23:45;;;;;;;1999.90;999.90;;;;;;;;;;4955903;29;20212;-70
2022/04/24 13:26:30;;;;;;;1999.90;999.90;;;;;;;;;;4955574;29;20215;-70
2022/04/24 13:29:15;;;;;;;1999.90;999.90;;;;;;;;;;4955675;29;20228;-70
2022/04/24 13:32:01;;;;;;;1999.90;999.90;;;;;;;;;;4953917;28;20820;-71
2022/04/24 13:34:46;;;;;;;1999.90;999.90;;;;;;;;;;4955191;29;20675;-71
2022/04/24 13:40:34;;;;;;;1999.90;999.90;;;;;;;;;;4951448;28;20216;-71
2022/04/24 13:43:19;;;;;;;1999.90;999.90;;;;;;;;;;4955048;29;20840;-71
2022/04/24 13:46:05;;;;;;;1999.90;999.90;;;;;;;;;;4955857;29;20208;-71
2022/04/24 13:48:52;;;;;;;1999.90;999.90;;;;;;;;;;4955466;29;20212;-71
2022/04/24 13:51:36;;;;;;;1999.90;999.90;;;;;;;;;;4955527;29;20232;-70
2022/04/24 13:54:21;;;;;;;1999.90;999.90;;;;;;;;;;4955598;29;20228;-70
2022/04/24 13:57:07;;;;;;;1999.90;999.90;;;;;;;;;;4955547;29;20284;-69
2022/04/24 13:59:52;;;;;;;1999.90;999.90;;;;;;;;;;4954807;28;20336;-71
2022/04/24 14:02:37;;;;;;;1999.90;999.90;;;;;;;;;;4955472;29;20212;-70
2022/04/24 14:05:25;;;;;;;1999.90;999.90;;;;;;;;;;4955232;29;20205;-68
2022/04/24 14:08:15;;;;;;;1999.90;999.90;;;;;;;;;;4955117;29;20577;-68
2022/04/24 14:11:00;;;;;;;1999.90;999.90;;;;;;;;;;4954738;28;20224;-69
2022/04/24 14:13:46;;;;;;;1999.90;999.90;;;;;;;;;;4953664;29;20444;-70
2022/04/24 14:16:31;;;;;;;1999.90;999.90;;;;;;;;;;4953991;29;20216;-70
2022/04/24 14:19:16;;;;;;;1999.90;999.90;;;;;;;;;;4954601;29;20213;-71
2022/04/24 14:22:02;;;;;;;1999.90;999.90;;;;;;;;;;4954904;28;20239;-70
2022/04/24 14:24:47;;;;;;;1999.90;999.90;;;;;;;;;;4954383;29;20425;-70
2022/04/24 14:27:33;;;;;;;1999.90;999.90;;;;;;;;;;4954929;29;20212;-70
2022/04/24 14:30:20;;;;;;;1999.90;999.90;;;;;;;;;;4954835;28;20228;-71
2022/04/24 14:33:05;;;;;;;1999.90;999.90;;;;;;;;;;4957758;28;20223;-70
2022/04/24 14:35:50;;;;;;;1999.90;999.90;;;;;;;;;;4946145;29;20219;-70
2022/04/24 14:38:36;;;;;;;1999.90;999.90;;;;;;;;;;4954136;29;20313;-70
2022/04/24 14:41:21;;;;;;;1999.90;999.90;;;;;;;;;;4954641;28;20779;-69
2022/04/24 14:44:06;;;;;;;1999.90;999.90;;;;;;;;;;4963527;28;20263;-70
2022/04/24 14:56:01;;;;;;;1999.90;999.90;;;;;;;;;;4954500;29;20270;-70
2022/04/24 14:58:47;;;;;;;1999.90;999.90;;;;;;;;;;4954110;29;20213;-70
2022/04/24 15:01:32;;;;;;;1999.90;999.90;;;;;;;;;;4954330;28;20364;-70
2022/04/24 15:04:17;;;;;;;1999.90;999.90;;;;;;;;;;4954329;29;20212;-70
2022/04/24 15:07:02;;;;;;;1999.90;999.90;;;;;;;;;;4953151;29;20922;-69
2022/04/24 15:09:47;;;;;;;1999.90;999.90;;;;;;;;;;4954121;29;20209;-70
2022/04/24 15:12:33;;;;;;;1999.90;999.90;;;;;;;;;;4953989;29;20200;-70
2022/04/24 15:15:19;;;;;;;1999.90;999.90;;;;;;;;;;4954151;29;20251;-69
2022/04/24 15:18:05;;;;;;;1999.90;999.90;;;;;;;;;;4954034;29;20929;-68
2022/04/24 15:20:50;;;;;;;1999.90;999.90;;;;;;;;;;4953901;28;20236;-69
2022/04/24 15:23:36;;;;;;;1999.90;999.90;;;;;;;;;;4954049;29;20225;-68
2022/04/24 15:26:21;;;;;;;1999.90;999.90;;;;;;;;;;4954080;29;20284;-70
2022/04/24 15:29:07;;;;;;;1999.90;999.90;;;;;;;;;;4953589;29;20219;-70
2022/04/24 15:31:53;;;;;;;1999.90;999.90;;;;;;;;;;4954032;28;20730;-70
2022/04/24 15:34:38;;;;;;;1999.90;999.90;;;;;;;;;;4953094;29;20440;-70
2022/04/24 15:37:24;;;;;;;1999.90;999.90;;;;;;;;;;4953827;29;20264;-70
2022/04/24 15:40:10;;;;;;;1999.90;999.90;;;;;;;;;;4953698;28;20268;-69
2022/04/24 15:42:55;;;;;;;1999.90;999.90;;;;;;;;;;4953889;29;20668;-70